createdAt,value
2023-02-07T00:00:17.810Z,12.70
2023-02-07T00:02:49.535Z,12.30
2023-02-07T00:05:16.475Z,12.77
2023-02-07T00:07:43.548Z,11.07
2023-02-07T00:10:10.637Z,12.05
2023-02-07T00:12:37.168Z,12.20
2023-02-07T00:15:04.640Z,12.02
2023-02-07T00:17:31.334Z,12.13
2023-02-07T00:19:58.212Z,12.18
2023-02-07T00:22:24.901Z,12.25
2023-02-07T00:24:51.741Z,12.50
2023-02-07T00:27:18.669Z,11.65
2023-02-07T00:29:45.426Z,12.77
2023-02-07T00:32:11.980Z,12.05
2023-02-07T00:34:38.569Z,12.57
2023-02-07T00:37:06.172Z,11.27
2023-02-07T00:39:32.946Z,13.30
2023-02-07T00:41:59.567Z,12.63
2023-02-07T00:44:26.380Z,13.02
2023-02-07T00:46:52.892Z,11.20
2023-02-07T00:49:19.463Z,12.80
2023-02-07T00:51:46.112Z,11.93
2023-02-07T00:54:12.642Z,13.15
2023-02-07T00:56:39.459Z,12.93
2023-02-07T00:59:06.163Z,12.43
2023-02-07T01:01:33.046Z,13.30
2023-02-07T01:03:59.902Z,12.10
2023-02-07T01:06:28.113Z,11.38
2023-02-07T01:08:59.085Z,10.68
2023-02-07T01:11:26.584Z,11.90
2023-02-07T01:13:53.625Z,11.05
2023-02-07T01:16:25.161Z,12.65
2023-02-07T01:18:51.993Z,13.57
2023-02-07T01:21:24.518Z,12.07
2023-02-07T01:23:51.701Z,10.48
2023-02-07T01:26:18.543Z,11.70
2023-02-07T01:28:45.100Z,11.02
2023-02-07T01:31:13.251Z,11.18
2023-02-07T01:33:39.836Z,12.10
2023-02-07T01:36:11.813Z,11.52
2023-02-07T01:38:38.664Z,9.95
2023-02-07T01:41:05.777Z,10.77
2023-02-07T01:43:32.638Z,11.13
2023-02-07T01:45:59.208Z,11.15
2023-02-07T01:48:36.810Z,11.25
2023-02-07T01:51:07.612Z,11.10
2023-02-07T01:53:37.382Z,10.25
2023-02-07T01:56:07.064Z,10.43
2023-02-07T01:58:34.306Z,11.43
2023-02-07T02:01:04.362Z,9.98
2023-02-07T02:05:57.604Z,10.18
2023-02-07T02:08:24.856Z,10.98
2023-02-07T02:11:29.891Z,10.68
2023-02-07T02:14:21.376Z,11.88
2023-02-07T02:16:50.595Z,10.40
2023-02-07T02:19:37.054Z,11.10
2023-02-07T02:22:39.084Z,10.35
2023-02-07T02:25:33.428Z,11.20
2023-02-07T02:28:11.745Z,11.77
2023-02-07T02:30:58.286Z,10.63
2023-02-07T02:33:30.950Z,10.30
2023-02-07T02:36:21.879Z,10.15
2023-02-07T02:39:02.849Z,11.18
2023-02-07T02:41:40.740Z,11.07
2023-02-07T02:44:25.960Z,11.48
2023-02-07T02:46:54.359Z,10.43
2023-02-07T02:49:26.160Z,10.20
2023-02-07T02:51:52.912Z,9.98
2023-02-07T02:54:31.120Z,10.48
2023-02-07T02:57:16.062Z,10.93
2023-02-07T03:00:07.854Z,11.43
2023-02-07T03:03:00.600Z,10.23
2023-02-07T03:05:38.903Z,10.23
2023-02-07T03:08:28.275Z,10.23
2023-02-07T03:11:07.875Z,11.20
2023-02-07T03:13:59.215Z,10.23
2023-02-07T03:16:37.965Z,9.82
2023-02-07T03:19:07.866Z,10.40
2023-02-07T03:21:41.349Z,10.50
2023-02-07T03:24:15.298Z,9.30
2023-02-07T03:26:44.754Z,11.05
2023-02-07T03:29:14.916Z,10.43
2023-02-07T03:31:45.548Z,10.52
2023-02-07T03:34:16.834Z,11.10
2023-02-07T03:36:58.354Z,9.82
2023-02-07T03:39:25.567Z,10.32
2023-02-07T03:41:57.494Z,10.38
2023-02-07T03:44:27.158Z,9.55
2023-02-07T03:46:54.703Z,11.73
2023-02-07T03:49:21.715Z,9.73
2023-02-07T03:51:48.290Z,10.32
2023-02-07T03:54:15.132Z,11.40
2023-02-07T03:56:41.822Z,10.93
2023-02-07T03:59:08.662Z,11.18
2023-02-07T04:01:40.731Z,10.77
2023-02-07T04:04:08.007Z,11.15
2023-02-07T04:06:34.580Z,11.93
2023-02-07T04:09:01.151Z,11.75
2023-02-07T04:11:30.723Z,12.00
2023-02-07T04:13:57.319Z,12.70
2023-02-07T04:16:24.727Z,12.18
2023-02-07T04:18:51.292Z,11.05
2023-02-07T04:21:17.884Z,11.75
2023-02-07T04:23:44.412Z,11.77
2023-02-07T04:26:10.956Z,11.00
2023-02-07T04:28:37.485Z,11.50
2023-02-07T04:31:04.188Z,11.57
2023-02-07T04:33:30.716Z,11.07
2023-02-07T04:36:03.108Z,12.15
2023-02-07T04:38:30.043Z,11.23
2023-02-07T04:41:03.421Z,11.35
2023-02-07T04:43:31.008Z,11.52
2023-02-07T04:45:57.546Z,11.15
2023-02-07T04:48:24.248Z,12.88
2023-02-07T04:50:50.696Z,11.73
2023-02-07T04:53:17.324Z,12.57
2023-02-07T04:55:47.389Z,12.10
2023-02-07T04:58:14.114Z,12.40
2023-02-07T05:00:40.887Z,11.38
2023-02-07T05:03:07.378Z,12.65
2023-02-07T05:05:33.882Z,12.85
2023-02-07T05:08:00.351Z,14.20
2023-02-07T05:10:26.870Z,12.45
2023-02-07T05:12:53.395Z,14.05
2023-02-07T05:15:20.009Z,12.95
2023-02-07T05:17:46.679Z,12.75
2023-02-07T05:20:13.277Z,12.32
2023-02-07T05:22:39.769Z,13.18
2023-02-07T05:25:06.589Z,12.80
2023-02-07T05:27:33.405Z,12.43
2023-02-07T05:30:00.065Z,13.02
2023-02-07T05:32:45.398Z,13.05
2023-02-07T05:35:12.024Z,13.93
2023-02-07T05:37:38.600Z,14.20
2023-02-07T05:40:05.642Z,14.02
2023-02-07T05:42:32.345Z,14.75
2023-02-07T05:44:58.933Z,14.95
2023-02-07T05:47:25.494Z,15.27
2023-02-07T05:49:52.042Z,17.02
2023-02-07T05:52:18.664Z,16.27
2023-02-07T05:54:45.160Z,14.38
2023-02-07T05:57:11.665Z,15.85
2023-02-07T05:59:38.172Z,15.48
2023-02-07T06:02:04.690Z,14.93
2023-02-07T06:04:31.471Z,14.88
2023-02-07T06:06:57.981Z,15.68
2023-02-07T06:09:24.521Z,14.07
2023-02-07T06:11:50.986Z,14.75
2023-02-07T06:14:17.700Z,15.93
2023-02-07T06:16:44.184Z,15.52
2023-02-07T06:19:12.976Z,16.67
2023-02-07T06:21:46.518Z,16.27
2023-02-07T06:24:14.286Z,16.30
2023-02-07T06:26:40.790Z,15.77
2023-02-07T06:29:07.565Z,16.92
2023-02-07T06:31:34.111Z,16.73
2023-02-07T06:34:00.671Z,17.17
2023-02-07T06:36:27.188Z,16.48
2023-02-07T06:38:55.522Z,16.88
2023-02-07T06:41:22.836Z,16.88
2023-02-07T06:43:49.392Z,16.60
2023-02-07T06:46:16.117Z,16.65
2023-02-07T06:48:42.741Z,17.67
2023-02-07T06:51:09.397Z,17.58
2023-02-07T06:53:35.917Z,17.30
2023-02-07T06:56:02.639Z,17.13
2023-02-07T06:58:29.129Z,18.50
2023-02-07T07:00:55.653Z,17.52
2023-02-07T07:03:26.992Z,17.48
2023-02-07T07:05:53.644Z,17.70
2023-02-07T07:08:20.422Z,23.23
2023-02-07T07:10:46.963Z,20.98
2023-02-07T07:13:13.523Z,19.67
2023-02-07T07:15:40.276Z,19.42
2023-02-07T07:18:06.986Z,22.08
2023-02-07T07:20:33.557Z,30.23
2023-02-07T07:23:00.036Z,37.55
2023-02-07T16:20:15.659Z,18.63
2023-02-07T16:30:15.286Z,10.80
2023-02-07T16:59:41.730Z,13.90
2023-02-07T17:02:14.981Z,11.20
2023-02-07T23:35:09.477Z,17.40
